createdAt,value
2023-04-26T00:00:37.955Z,9.10
2023-04-26T00:03:05.255Z,9.11
2023-04-26T00:05:32.608Z,9.11
2023-04-26T00:07:59.733Z,9.10
2023-04-26T00:10:27.002Z,9.09
2023-04-26T00:12:54.278Z,9.08
2023-04-26T00:15:21.348Z,9.06
2023-04-26T00:17:48.786Z,9.05
2023-04-26T00:20:16.051Z,9.04
2023-04-26T00:22:43.233Z,9.00
2023-04-26T00:25:10.585Z,8.98
2023-04-26T00:27:37.708Z,8.93
2023-04-26T00:30:05.599Z,8.91
2023-04-26T00:32:32.706Z,8.91
2023-04-26T00:35:00.239Z,8.91
2023-04-26T00:37:27.379Z,8.88
2023-04-26T00:39:54.612Z,8.88
2023-04-26T00:42:21.739Z,8.85
2023-04-26T00:44:50.540Z,8.84
2023-04-26T00:47:17.615Z,8.83
2023-04-26T00:49:44.696Z,8.81
2023-04-26T00:52:12.246Z,8.81
2023-04-26T00:54:39.552Z,8.78
2023-04-26T00:57:07.404Z,8.76
2023-04-26T00:59:35.596Z,8.74
2023-04-26T01:02:05.964Z,8.73
2023-04-26T01:04:33.895Z,8.71
2023-04-26T01:07:01.648Z,8.68
2023-04-26T01:09:29.918Z,8.66
2023-04-26T01:12:00.632Z,8.63
2023-04-26T01:14:27.863Z,8.62
2023-04-26T01:16:55.639Z,8.61
2023-04-26T01:19:23.579Z,8.60
2023-04-26T01:21:50.733Z,8.58
2023-04-26T01:24:17.851Z,8.57
2023-04-26T01:26:47.691Z,8.55
2023-04-26T01:29:15.872Z,8.53
2023-04-26T01:31:43.428Z,8.51
2023-04-26T01:34:10.534Z,8.48
2023-04-26T01:36:38.199Z,8.47
2023-04-26T01:39:05.404Z,8.47
2023-04-26T01:41:33.856Z,8.46
2023-04-26T01:44:01.559Z,8.45
2023-04-26T01:46:28.721Z,8.45
2023-04-26T01:48:55.952Z,8.46
2023-04-26T01:51:23.514Z,8.47
2023-04-26T01:53:50.552Z,8.48
2023-04-26T01:56:18.516Z,8.49
2023-04-26T01:58:45.789Z,8.48
2023-04-26T02:01:13.125Z,8.46
2023-04-26T02:03:40.331Z,8.43
2023-04-26T02:06:07.853Z,8.41
2023-04-26T02:08:36.266Z,8.37
2023-04-26T02:11:03.500Z,8.31
2023-04-26T02:13:30.819Z,8.27
2023-04-26T02:15:58.188Z,8.23
2023-04-26T02:18:25.802Z,8.19
2023-04-26T02:20:52.975Z,8.13
2023-04-26T02:23:20.209Z,8.07
2023-04-26T02:25:49.702Z,8.02
2023-04-26T02:28:17.677Z,7.96
2023-04-26T02:30:45.176Z,7.91
2023-04-26T02:33:12.451Z,7.87
2023-04-26T02:35:39.705Z,7.80
2023-04-26T02:38:07.097Z,7.74
2023-04-26T02:40:34.283Z,7.70
2023-04-26T02:43:01.828Z,7.72
2023-04-26T02:45:28.911Z,7.75
2023-04-26T02:47:56.185Z,7.81
2023-04-26T02:50:23.892Z,7.90
2023-04-26T02:52:51.333Z,8.02
2023-04-26T02:55:18.613Z,8.16
2023-04-26T02:57:48.576Z,8.32
2023-04-26T03:00:15.860Z,8.47
2023-04-26T03:02:43.143Z,8.65
2023-04-26T03:05:10.886Z,8.85
2023-04-26T03:07:38.128Z,9.14
2023-04-26T03:10:05.935Z,9.47
2023-04-26T03:12:33.650Z,9.64
2023-04-26T03:15:03.390Z,9.54
2023-04-26T03:17:30.781Z,9.38
2023-04-26T03:19:59.105Z,9.25
2023-04-26T03:22:27.802Z,9.14
2023-04-26T03:24:54.895Z,9.06
2023-04-26T03:27:22.138Z,9.00
2023-04-26T03:29:49.267Z,8.92
2023-04-26T03:32:16.358Z,8.83
2023-04-26T03:34:43.570Z,8.77
2023-04-26T03:37:10.908Z,8.73
2023-04-26T03:39:38.418Z,8.68
2023-04-26T03:42:05.849Z,8.65
2023-04-26T03:44:34.000Z,8.59
2023-04-26T03:47:01.206Z,8.53
2023-04-26T03:49:28.550Z,8.48
2023-04-26T03:51:55.734Z,8.39
2023-04-26T03:54:22.806Z,8.32
2023-04-26T03:56:50.094Z,8.31
2023-04-26T03:59:17.411Z,8.33
2023-04-26T04:01:44.680Z,8.35
2023-04-26T04:04:12.251Z,8.34
2023-04-26T04:06:39.987Z,8.27
2023-04-26T04:09:07.280Z,8.17
2023-04-26T04:11:34.890Z,8.05
2023-04-26T04:14:03.104Z,7.90
2023-04-26T04:16:30.336Z,7.83
2023-04-26T04:18:57.622Z,7.81
2023-04-26T04:21:25.069Z,7.82
2023-04-26T04:23:53.574Z,7.91
2023-04-26T04:26:21.374Z,8.06
2023-04-26T04:28:48.897Z,8.19
2023-04-26T04:31:19.452Z,8.32
2023-04-26T04:33:47.215Z,8.41
2023-04-26T04:36:17.143Z,8.46
2023-04-26T04:38:45.626Z,8.46
2023-04-26T04:41:16.489Z,8.55
2023-04-26T04:43:46.597Z,8.68
2023-04-26T04:46:17.167Z,8.81
2023-04-26T04:48:45.590Z,8.92
2023-04-26T04:51:13.057Z,9.03
2023-04-26T04:53:40.219Z,9.14
2023-04-26T04:56:07.908Z,9.20
2023-04-26T04:58:35.518Z,9.36
2023-04-26T05:01:02.925Z,9.55
2023-04-26T05:03:38.151Z,9.72
2023-04-26T05:06:05.990Z,9.86
2023-04-26T05:08:33.873Z,10.06
2023-04-26T05:11:03.766Z,10.23
2023-04-26T05:13:31.119Z,10.30
2023-04-26T05:15:58.331Z,10.46
2023-04-26T05:18:26.036Z,10.82
2023-04-26T05:20:53.928Z,11.47
2023-04-26T05:23:21.628Z,12.31
2023-04-26T05:25:48.701Z,12.99
2023-04-26T05:28:44.626Z,14.16
2023-04-26T05:31:24.190Z,15.46
2023-04-26T05:34:14.383Z,16.49
2023-04-26T05:36:41.937Z,16.99
2023-04-26T05:39:09.304Z,17.07
2023-04-26T05:41:36.460Z,17.02
2023-04-26T05:44:03.953Z,17.16
2023-04-26T05:46:32.337Z,17.68
2023-04-26T05:48:59.480Z,18.25
2023-04-26T05:51:28.284Z,18.81
2023-04-26T05:53:55.564Z,19.42
2023-04-26T05:56:24.114Z,19.92
2023-04-26T05:58:52.007Z,20.84
2023-04-26T06:01:19.671Z,21.79
2023-04-26T06:03:47.020Z,22.67
2023-04-26T06:06:16.179Z,22.77
2023-04-26T06:08:43.617Z,22.05
2023-04-26T06:11:11.148Z,21.22
2023-04-26T06:13:38.679Z,20.71
2023-04-26T06:16:06.355Z,20.45
2023-04-26T06:18:33.531Z,20.43
2023-04-26T06:21:00.705Z,20.99
2023-04-26T06:23:27.819Z,21.70
2023-04-26T06:25:54.779Z,22.27
2023-04-26T06:28:21.917Z,22.75
2023-04-26T06:30:49.274Z,23.24
2023-04-26T06:33:16.470Z,23.36
2023-04-26T06:35:43.669Z,23.07
2023-04-26T06:38:13.120Z,22.87
2023-04-26T06:40:40.553Z,22.70
2023-04-26T06:43:08.526Z,22.45
2023-04-26T06:45:58.905Z,22.03
2023-04-26T06:48:26.153Z,21.65
2023-04-26T06:50:53.467Z,21.54
2023-04-26T06:53:23.067Z,21.36
2023-04-26T06:55:50.520Z,20.93
2023-04-26T06:58:17.580Z,20.68
2023-04-26T07:00:44.758Z,20.54
2023-04-26T07:03:12.098Z,20.40
2023-04-26T07:05:39.870Z,20.35
2023-04-26T07:08:07.384Z,20.27
2023-04-26T07:10:34.573Z,20.06
2023-04-26T07:13:05.022Z,20.19
2023-04-26T07:15:33.312Z,20.73
2023-04-26T07:18:00.576Z,21.39
2023-04-26T07:20:27.958Z,22.01
2023-04-26T07:22:55.054Z,22.43
2023-04-26T07:25:22.110Z,22.61
2023-04-26T07:27:51.878Z,22.69
2023-04-26T07:30:19.215Z,22.59
2023-04-26T07:32:46.506Z,22.54
2023-04-26T07:35:16.519Z,22.64
2023-04-26T07:37:44.468Z,22.88
2023-04-26T07:40:12.312Z,23.01
2023-04-26T07:42:39.603Z,22.97
2023-04-26T07:45:07.350Z,22.85
2023-04-26T07:47:34.592Z,22.90
2023-04-26T07:50:01.777Z,22.85
2023-04-26T07:52:29.029Z,22.86
2023-04-26T07:54:56.152Z,22.90
2023-04-26T07:57:23.369Z,22.86
2023-04-26T07:59:50.476Z,22.74
2023-04-26T08:02:18.531Z,22.53
2023-04-26T08:04:50.530Z,22.31
2023-04-26T08:07:17.768Z,22.11
2023-04-26T08:09:45.073Z,21.86
2023-04-26T08:12:12.812Z,21.58
2023-04-26T08:14:39.979Z,21.41
2023-04-26T08:17:09.382Z,21.11
2023-04-26T08:19:36.604Z,20.68
2023-04-26T08:22:04.043Z,20.35
2023-04-26T08:24:31.326Z,20.15
2023-04-26T08:26:59.252Z,20.16
2023-04-26T08:29:26.980Z,20.08
2023-04-26T08:31:54.412Z,20.02
2023-04-26T08:34:21.653Z,19.99
2023-04-26T08:36:48.823Z,19.86
2023-04-26T08:39:18.089Z,19.61
2023-04-26T08:41:48.457Z,19.41
2023-04-26T08:44:15.595Z,19.29
2023-04-26T08:47:15.067Z,19.09
2023-04-26T08:49:45.574Z,18.96
2023-04-26T08:52:14.054Z,19.01
2023-04-26T08:54:41.461Z,18.89
2023-04-26T08:57:08.968Z,18.75
2023-04-26T08:59:39.664Z,18.64
2023-04-26T09:02:07.333Z,18.57
2023-04-26T09:04:34.981Z,18.50
2023-04-26T09:07:03.301Z,18.50
2023-04-26T09:09:41.710Z,18.55
2023-04-26T09:12:08.859Z,18.59
2023-04-26T09:14:35.974Z,18.67
2023-04-26T09:17:03.009Z,18.82
2023-04-26T09:19:39.517Z,18.88
2023-04-26T09:22:06.822Z,18.91
2023-04-26T09:24:48.423Z,18.92
2023-04-26T09:27:16.708Z,18.93
2023-04-26T09:30:08.355Z,18.84
2023-04-26T09:32:59.284Z,18.86
2023-04-26T09:35:37.766Z,18.86
2023-04-26T09:38:18.036Z,18.76
2023-04-26T09:40:49.536Z,18.69
2023-04-26T09:43:17.738Z,18.69
2023-04-26T09:45:49.129Z,18.62
2023-04-26T09:48:17.195Z,18.52
2023-04-26T09:50:48.307Z,18.49
2023-04-26T09:53:27.919Z,18.55
2023-04-26T09:55:56.332Z,18.53
2023-04-26T09:58:23.674Z,18.55
2023-04-26T10:00:51.724Z,18.49
2023-04-26T10:03:21.063Z,18.39
2023-04-26T10:05:48.372Z,18.38
2023-04-26T10:08:15.527Z,18.40
2023-04-26T10:10:43.057Z,18.40
2023-04-26T10:13:10.521Z,18.31
2023-04-26T10:15:37.741Z,18.27
2023-04-26T10:18:05.100Z,18.30
2023-04-26T10:20:32.327Z,18.28
2023-04-26T10:23:01.679Z,18.23
2023-04-26T10:25:36.576Z,18.34
2023-04-26T10:28:03.817Z,18.40
2023-04-26T10:30:31.077Z,18.41
2023-04-26T10:32:58.435Z,18.44
2023-04-26T10:35:26.619Z,18.44
2023-04-26T10:37:59.886Z,18.38
2023-04-26T10:40:27.553Z,18.36
2023-04-26T10:43:15.871Z,18.43
2023-04-26T10:45:43.880Z,18.56
2023-04-26T10:48:20.602Z,18.52
2023-04-26T10:50:59.989Z,18.50
2023-04-26T10:53:53.971Z,18.46
2023-04-26T10:56:24.418Z,18.49
2023-04-26T10:59:28.402Z,18.58
2023-04-26T11:01:57.934Z,18.56
2023-04-26T11:04:25.248Z,18.45
2023-04-26T11:06:57.992Z,18.31
2023-04-26T11:09:39.814Z,18.22
2023-04-26T11:12:09.279Z,18.12
2023-04-26T11:14:36.357Z,18.08
2023-04-26T11:17:05.015Z,18.08
2023-04-26T11:19:32.895Z,18.08
2023-04-26T11:22:01.137Z,18.05
2023-04-26T11:24:28.808Z,17.98
2023-04-26T11:26:56.022Z,17.95
2023-04-26T11:29:23.289Z,17.91
2023-04-26T11:31:54.258Z,17.91
2023-04-26T11:34:23.689Z,17.91
2023-04-26T11:36:51.434Z,17.89
2023-04-26T11:39:20.736Z,17.86
2023-04-26T11:41:47.831Z,17.86
2023-04-26T11:44:19.395Z,17.93
2023-04-26T11:46:49.577Z,17.99
2023-04-26T11:49:17.055Z,18.01
2023-04-26T11:51:47.162Z,18.02
2023-04-26T11:54:27.553Z,18.01
2023-04-26T11:56:54.846Z,17.99
2023-04-26T11:59:26.045Z,17.98
2023-04-26T12:01:53.566Z,17.99
2023-04-26T12:04:21.002Z,18.02
2023-04-26T12:06:49.932Z,18.09
2023-04-26T12:09:17.736Z,18.12
2023-04-26T12:11:57.808Z,18.10
2023-04-26T12:14:37.244Z,18.06
2023-04-26T12:17:06.406Z,18.06
2023-04-26T12:19:34.389Z,18.04
2023-04-26T12:22:01.635Z,18.02
2023-04-26T12:24:30.715Z,18.05
2023-04-26T12:26:59.152Z,18.15
2023-04-26T12:29:29.064Z,18.26
2023-04-26T12:31:59.378Z,18.29
2023-04-26T12:34:26.639Z,18.29
2023-04-26T12:36:53.904Z,18.30
2023-04-26T12:39:21.201Z,18.29
2023-04-26T12:41:49.349Z,18.27
2023-04-26T12:44:16.872Z,18.25
2023-04-26T12:46:44.441Z,18.17
2023-04-26T12:49:11.847Z,18.07
2023-04-26T12:51:38.922Z,17.97
2023-04-26T12:54:06.105Z,17.92
2023-04-26T12:56:34.119Z,17.92
2023-04-26T12:59:01.378Z,17.95
2023-04-26T13:01:28.434Z,17.96
2023-04-26T13:03:56.843Z,17.96
2023-04-26T13:06:24.533Z,17.96
2023-04-26T13:08:51.819Z,17.96
2023-04-26T13:11:19.020Z,17.93
2023-04-26T13:13:46.472Z,17.88
2023-04-26T13:16:13.714Z,17.81
2023-04-26T13:18:41.598Z,17.77
2023-04-26T13:21:08.776Z,17.70
2023-04-26T13:23:35.867Z,17.64
2023-04-26T13:26:02.898Z,17.60
2023-04-26T13:28:29.956Z,17.60
2023-04-26T13:30:57.249Z,17.65
2023-04-26T13:33:24.345Z,17.74
2023-04-26T13:35:52.026Z,17.90
2023-04-26T13:38:19.264Z,18.05
2023-04-26T13:40:46.652Z,18.15
2023-04-26T13:43:13.744Z,18.20
2023-04-26T13:45:41.222Z,18.14
2023-04-26T13:48:08.257Z,18.04
2023-04-26T13:50:36.463Z,18.01
2023-04-26T13:53:04.636Z,18.00
2023-04-26T13:55:31.886Z,18.01
2023-04-26T13:57:59.157Z,18.02
2023-04-26T14:00:26.331Z,18.00
2023-04-26T14:02:53.465Z,17.97
2023-04-26T14:05:20.957Z,17.88
2023-04-26T14:07:48.259Z,17.79
2023-04-26T14:10:15.942Z,17.75
2023-04-26T14:12:43.298Z,17.75
2023-04-26T14:15:11.024Z,17.77
2023-04-26T14:17:38.183Z,17.80
2023-04-26T14:20:05.991Z,17.86
2023-04-26T14:22:33.075Z,17.94
2023-04-26T14:25:00.150Z,18.02
2023-04-26T14:27:27.267Z,18.12
2023-04-26T14:29:54.368Z,18.20
2023-04-26T14:32:21.511Z,18.22
2023-04-26T14:34:48.778Z,18.16
2023-04-26T14:37:16.416Z,18.12
2023-04-26T14:39:43.477Z,18.09
2023-04-26T14:42:11.484Z,18.05
2023-04-26T14:44:38.708Z,17.98
2023-04-26T14:47:05.925Z,17.94
2023-04-26T14:49:32.981Z,17.91
2023-04-26T14:52:00.061Z,17.87
2023-04-26T14:54:27.104Z,17.83
2023-04-26T14:56:54.167Z,17.77
2023-04-26T14:59:21.627Z,17.68
2023-04-26T15:01:49.127Z,17.62
2023-04-26T15:04:16.656Z,17.61
2023-04-26T15:06:43.830Z,17.62
2023-04-26T15:09:11.786Z,17.63
2023-04-26T15:11:39.145Z,17.64
2023-04-26T15:14:06.288Z,17.67
2023-04-26T15:16:33.594Z,17.71
2023-04-26T15:19:00.714Z,17.74
2023-04-26T15:21:29.048Z,17.79
2023-04-26T15:23:58.918Z,17.81
2023-04-26T15:26:26.280Z,17.83
2023-04-26T15:28:53.436Z,17.83
2023-04-26T15:31:20.912Z,17.82
2023-04-26T15:33:48.540Z,17.79
2023-04-26T15:36:17.034Z,17.75
2023-04-26T15:38:45.550Z,17.68
2023-04-26T15:41:12.598Z,17.60
2023-04-26T15:43:39.674Z,17.52
2023-04-26T15:46:06.741Z,17.45
2023-04-26T15:48:34.160Z,17.39
2023-04-26T15:51:05.184Z,17.36
2023-04-26T15:53:32.328Z,17.32
2023-04-26T15:55:59.449Z,17.27
2023-04-26T15:58:26.524Z,17.24
2023-04-26T16:00:53.618Z,17.18
2023-04-26T16:03:24.106Z,17.12
2023-04-26T16:05:51.415Z,17.06
2023-04-26T16:08:38.816Z,17.00
2023-04-26T16:11:07.335Z,16.92
2023-04-26T16:13:34.445Z,16.85
2023-04-26T16:16:01.654Z,16.78
2023-04-26T16:18:28.887Z,16.73
2023-04-26T16:21:05.015Z,16.67
2023-04-26T16:23:32.235Z,16.60
2023-04-26T16:25:59.265Z,16.54
2023-04-26T16:28:26.468Z,16.48
2023-04-26T16:30:53.587Z,16.42
2023-04-26T16:33:22.953Z,16.36
2023-04-26T16:35:52.890Z,16.31
2023-04-26T16:38:20.122Z,16.25
2023-04-26T16:40:58.486Z,16.20
2023-04-26T16:43:29.645Z,16.15
2023-04-26T16:46:00.956Z,16.10
2023-04-26T16:48:28.498Z,16.03
2023-04-26T16:50:55.655Z,15.97
2023-04-26T16:53:22.954Z,15.92
2023-04-26T16:55:50.614Z,15.87
2023-04-26T16:58:17.684Z,15.83
2023-04-26T17:00:44.960Z,15.78
2023-04-26T17:03:12.685Z,15.74
2023-04-26T17:05:40.940Z,15.70
2023-04-26T17:08:08.458Z,15.65
2023-04-26T17:10:36.279Z,15.60
2023-04-26T17:13:04.126Z,15.54
2023-04-26T17:15:33.826Z,15.48
2023-04-26T17:18:01.701Z,15.41
2023-04-26T17:20:28.852Z,15.35
2023-04-26T17:22:57.027Z,15.28
2023-04-26T17:25:24.741Z,15.23
2023-04-26T17:27:52.361Z,15.18
2023-04-26T17:30:20.428Z,15.13
2023-04-26T17:32:47.767Z,15.08
2023-04-26T17:35:14.982Z,15.04
2023-04-26T17:37:42.295Z,15.00
2023-04-26T17:40:10.164Z,14.98
2023-04-26T17:42:37.218Z,14.96
2023-04-26T17:45:05.706Z,14.95
2023-04-26T17:47:32.879Z,14.92
2023-04-26T17:50:00.158Z,14.90
